Calvinia Airport


Codes: FACV/
Name: Calvinia Airport
City: Calvinia
Country: South Africa
Elevation: 3250 ft.

Photos at Calvinia Airport


   Photos courtesy of SpottingLog. You can add your own sightings and photos by signing up for a free trial today.



No photos found.

Weather at Calvinia Airport


Time (UTC)DescriptionTempratureWindCloud coverageVisibilityPressureHumidity
18-Apr-2024 00:00Few Clouds18°C0 mph, SE11%10000m1018hPa46%
18-Apr-2024 03:00Few Clouds17°C2 mph, NE21%10000m1017hPa46%
18-Apr-2024 06:00Few Clouds18°C2 mph, NE18%10000m1019hPa37%
18-Apr-2024 09:00Scattered Clouds25°C4 mph, N47%10000m1019hPa19%
18-Apr-2024 12:00Broken Clouds28°C7 mph, NW73%10000m1017hPa19%
18-Apr-2024 15:00Broken Clouds28°C7 mph, NW73%10000m1016hPa16%
18-Apr-2024 18:00Broken Clouds23°C4 mph, SW67%10000m1018hPa25%
18-Apr-2024 21:00Scattered Clouds21°C2 mph, E27%10000m1018hPa31%
19-Apr-2024 00:00Scattered Clouds21°C4 mph, NE50%10000m1018hPa28%
19-Apr-2024 03:00Overcast Clouds20°C4 mph, NE99%10000m1017hPa26%
19-Apr-2024 06:00Overcast Clouds22°C7 mph, NE88%10000m1018hPa24%
19-Apr-2024 09:00Broken Clouds29°C9 mph, N63%10000m1016hPa21%
19-Apr-2024 12:00Broken Clouds32°C13 mph, NW71%10000m1014hPa17%
19-Apr-2024 15:00Few Clouds32°C11 mph, W22%10000m1013hPa16%
19-Apr-2024 18:00Few Clouds25°C4 mph, SW18%10000m1015hPa25%
19-Apr-2024 21:00Scattered Clouds23°C4 mph, W37%10000m1015hPa27%
20-Apr-2024 00:00Scattered Clouds20°C4 mph, NW35%10000m1015hPa31%
20-Apr-2024 03:00Clear Sky18°C4 mph, W2%10000m1015hPa31%
20-Apr-2024 06:00Clear Sky19°C2 mph, NW2%10000m1015hPa27%
20-Apr-2024 09:00Broken Clouds25°C4 mph, W78%10000m1015hPa12%
20-Apr-2024 12:00Overcast Clouds28°C7 mph, SW89%10000m1013hPa9%
20-Apr-2024 15:00Overcast Clouds27°C4 mph, SW100%10000m1013hPa10%
20-Apr-2024 18:00Overcast Clouds22°C2 mph, S100%10000m1014hPa16%
20-Apr-2024 21:00Overcast Clouds20°C2 mph, SE100%10000m1014hPa17%
21-Apr-2024 00:00Overcast Clouds20°C4 mph, NE100%10000m1013hPa15%
21-Apr-2024 03:00Broken Clouds19°C4 mph, NE74%10000m1012hPa15%
21-Apr-2024 06:00Broken Clouds20°C4 mph, NE76%10000m1013hPa14%
21-Apr-2024 09:00Overcast Clouds27°C7 mph, N100%10000m1012hPa9%
21-Apr-2024 12:00Overcast Clouds29°C16 mph, NW100%10000m1010hPa9%
21-Apr-2024 15:00Overcast Clouds26°C13 mph, W100%10000m1010hPa13%
21-Apr-2024 18:00Overcast Clouds21°C4 mph, W100%10000m1012hPa22%
21-Apr-2024 21:00Overcast Clouds19°C4 mph, NW100%10000m1013hPa18%
22-Apr-2024 00:00Overcast Clouds18°C4 mph, NW100%10000m1013hPa21%
22-Apr-2024 03:00Overcast Clouds16°C4 mph, NW100%10000m1013hPa28%
22-Apr-2024 06:00Overcast Clouds16°C4 mph, NW100%10000m1014hPa30%
22-Apr-2024 09:00Overcast Clouds19°C11 mph, W100%10000m1014hPa35%
22-Apr-2024 12:00Overcast Clouds21°C13 mph, W95%10000m1013hPa36%
22-Apr-2024 15:00Broken Clouds20°C11 mph, W52%10000m1013hPa41%
22-Apr-2024 18:00Broken Clouds17°C4 mph, SW75%10000m1015hPa56%
22-Apr-2024 21:00Overcast Clouds15°C2 mph, SW100%10000m1016hPa65%